Time;durP1;ratioP1;P1;durP2;ratioP2;P2;SDS_P1;SDS_P2;PMS_P1;PMS_P2;Temp;Humidity;BMP_temperature;BMP_pressure;BME280_temperature;BME280_humidity;BME280_pressure;Samples;Min_cycle;Max_cycle;Signal;HPM_P1;HPM_P2
2024/02/03 00:10:43;;;;;;;14.60;8.50;;;;;;;8.22;100.00;99475.05;681195;1276;139628;-79
2024/02/03 00:25:47;;;;;;;17.80;8.50;;;;;;;8.28;100.00;99469.49;681277;1262;139365;-80
2024/02/03 00:40:51;;;;;;;14.00;7.30;;;;;;;8.41;100.00;99457.65;681125;1265;139348;-79
2024/02/03 00:55:54;;;;;;;8.90;5.80;;;;;;;8.65;100.00;99469.98;681618;1266;140778;-79
2024/02/03 01:10:59;;;;;;;8.70;5.10;;;;;;;8.79;100.00;99456.88;681384;1265;139239;-79
2024/02/03 01:26:03;;;;;;;6.80;4.50;;;;;;;9.02;100.00;99452.58;681604;1269;138369;-79
2024/02/03 01:41:07;;;;;;;5.70;3.70;;;;;;;9.10;100.00;99454.61;681363;1265;139905;-78
2024/02/03 01:56:12;;;;;;;6.70;3.40;;;;;;;9.21;100.00;99460.02;681440;1265;140361;-78
2024/02/03 02:11:21;;;;;;;3.00;2.20;;;;;;;9.32;100.00;99450.30;681240;1267;139420;-78
2024/02/03 02:26:25;;;;;;;2.40;1.80;;;;;;;9.28;100.00;99449.90;681258;1262;139032;-78
2024/02/03 02:41:33;;;;;;;1.90;1.40;;;;;;;9.09;100.00;99437.98;681122;1266;139589;-79
2024/02/03 02:56:37;;;;;;;1.80;1.50;;;;;;;9.47;100.00;99441.27;681360;1267;139134;-81
2024/02/03 03:11:42;;;;;;;4.20;1.50;;;;;;;9.50;100.00;99444.73;681237;1265;139208;-80
2024/02/03 03:26:48;;;;;;;2.30;1.20;;;;;;;9.66;100.00;99429.40;681459;1267;140131;-80
2024/02/03 03:41:55;;;;;;;2.10;1.10;;;;;;;9.53;100.00;99443.90;681585;1266;138563;-79
2024/02/03 03:56:59;;;;;;;3.30;1.00;;;;;;;9.53;100.00;99450.48;681480;1276;140201;-79
2024/02/03 04:12:03;;;;;;;1.00;1.00;;;;;;;9.51;100.00;99444.80;681717;1263;138620;-79
2024/02/03 04:27:06;;;;;;;1.40;0.90;;;;;;;9.55;100.00;99464.51;681623;1264;139758;-80
2024/02/03 04:42:11;;;;;;;2.70;1.70;;;;;;;9.48;100.00;99473.34;681702;1264;138926;-80
2024/02/03 04:57:16;;;;;;;1.70;1.40;;;;;;;9.48;100.00;99489.02;681457;1263;139752;-79
2024/02/03 05:12:19;;;;;;;4.70;2.10;;;;;;;9.48;100.00;99495.55;681688;1264;138726;-80
2024/02/03 05:27:23;;;;;;;3.00;2.10;;;;;;;9.64;100.00;99500.44;681504;1265;138872;-79
2024/02/03 05:42:29;;;;;;;3.60;2.00;;;;;;;9.63;100.00;99508.58;681659;1261;138706;-80
2024/02/03 05:57:33;;;;;;;3.30;1.50;;;;;;;9.72;100.00;99528.80;681549;1260;138775;-80
2024/02/03 06:12:39;;;;;;;7.00;4.20;;;;;;;9.76;100.00;99547.51;681667;1259;138941;-80
2024/02/03 06:27:43;;;;;;;4.60;2.40;;;;;;;9.71;100.00;99553.05;681589;1269;140764;-81
2024/02/03 06:42:48;;;;;;;2.60;2.20;;;;;;;9.76;100.00;99553.95;681773;1263;138619;-80
2024/02/03 06:57:52;;;;;;;3.40;2.00;;;;;;;9.87;100.00;99553.98;681561;1264;138984;-81
2024/02/03 07:12:59;;;;;;;4.00;2.90;;;;;;;10.07;100.00;99554.95;681606;1261;138997;-81
2024/02/03 07:28:03;;;;;;;8.00;5.80;;;;;;;10.26;100.00;99556.78;681342;1263;139260;-81
2024/02/03 07:43:07;;;;;;;27.70;11.30;;;;;;;10.37;100.00;99566.41;681484;1264;139367;-80
2024/02/03 07:58:11;;;;;;;19.00;9.60;;;;;;;10.36;100.00;99575.77;681466;1263;139765;-82
2024/02/03 08:13:17;;;;;;;4.90;2.80;;;;;;;10.55;100.00;99593.85;681680;1262;139341;-81
2024/02/03 08:28:21;;;;;;;10.40;6.40;;;;;;;10.63;100.00;99600.41;681496;1262;139864;-81
2024/02/03 08:43:24;;;;;;;24.90;10.70;;;;;;;10.66;100.00;99592.05;681761;1263;139230;-82
2024/02/03 08:58:30;;;;;;;52.50;25.30;;;;;;;10.71;100.00;99588.80;681381;1261;184840;-81
2024/02/03 09:13:35;;;;;;;77.30;30.70;;;;;;;10.84;100.00;99606.77;681471;1262;140165;-81
2024/02/03 09:28:39;;;;;;;21.40;8.00;;;;;;;10.93;100.00;99626.97;681595;1261;139436;-81
2024/02/03 09:43:43;;;;;;;21.60;7.10;;;;;;;11.16;100.00;99631.15;681423;1264;138736;-80
2024/02/03 09:58:47;;;;;;;19.10;8.40;;;;;;;11.51;100.00;99630.28;681775;1259;139356;-81
2024/02/03 10:14:01;;;;;;;22.40;11.00;;;;;;;11.80;100.00;99637.66;681561;1264;139211;-81
2024/02/03 10:29:05;;;;;;;83.40;33.10;;;;;;;11.85;100.00;99642.05;681924;1262;141612;-80
2024/02/03 10:44:10;;;;;;;25.20;12.30;;;;;;;11.77;100.00;99652.72;682144;1262;138988;-81
2024/02/03 10:59:20;;;;;;;6.60;3.80;;;;;;;11.84;100.00;99635.13;681983;1262;141296;-83
2024/02/03 11:14:27;;;;;;;11.50;4.60;;;;;;;11.81;100.00;99636.55;682014;1263;138511;-80
2024/02/03 11:29:31;;;;;;;67.20;26.40;;;;;;;11.91;100.00;99634.23;682018;1265;139835;-80
2024/02/03 11:44:54;;;;;;;35.90;13.00;;;;;;;11.93;100.00;99635.77;682178;1265;140254;-79
2024/02/03 12:00:06;;;;;;;17.70;7.20;;;;;;;12.04;100.00;99632.76;682061;1264;139180;-80
2024/02/03 12:15:10;;;;;;;12.10;6.90;;;;;;;12.34;100.00;99630.64;681989;1265;140160;-81
2024/02/03 12:30:18;;;;;;;12.30;6.10;;;;;;;12.22;99.25;99631.91;682086;1260;138956;-81
2024/02/03 12:45:22;;;;;;;;;;;;;;;11.89;98.79;99633.45;682071;1264;140230;-81
2024/02/03 13:00:26;;;;;;;20.80;8.00;;;;;;;11.90;97.90;99620.90;682088;1265;126434;-81
2024/02/03 13:15:30;;;;;;;7.60;4.50;;;;;;;12.10;96.15;99608.11;682144;1263;139740;-82
2024/02/03 13:30:34;;;;;;;89.50;33.30;;;;;;;12.13;94.76;99623.39;682163;1265;139144;-80
2024/02/03 13:45:38;;;;;;;25.60;11.50;;;;;;;12.03;94.16;99642.24;682098;1264;139389;-81
2024/02/03 14:00:43;;;;;;;34.20;14.00;;;;;;;12.14;92.70;99640.48;682140;1265;138997;-80
2024/02/03 14:15:46;;;;;;;20.70;13.90;;;;;;;12.14;90.12;99665.71;681975;1265;139083;-80
2024/02/03 14:30:49;;;;;;;27.60;13.60;;;;;;;11.99;87.36;99673.52;681988;1264;139186;-80
2024/02/03 14:45:54;;;;;;;14.00;7.70;;;;;;;11.74;87.11;99682.59;681993;1265;139774;-80
2024/02/03 15:00:58;;;;;;;13.60;6.10;;;;;;;11.50;86.05;99687.79;682025;1264;138545;-80
2024/02/03 15:16:02;;;;;;;25.70;12.00;;;;;;;11.26;84.86;99680.08;681809;1264;139001;-81
2024/02/03 15:31:08;;;;;;;18.40;7.60;;;;;;;11.10;84.20;99682.89;681830;1263;139646;-81
2024/02/03 15:46:13;;;;;;;16.40;7.40;;;;;;;10.92;83.84;99695.02;681809;1265;139972;-80
2024/02/03 16:01:16;;;;;;;46.50;17.80;;;;;;;10.76;83.06;99715.28;681647;1262;139060;-80
2024/02/03 16:16:20;;;;;;;32.90;15.20;;;;;;;10.53;83.67;99721.48;681455;1265;139452;-80
2024/02/03 16:31:24;;;;;;;56.00;26.30;;;;;;;10.32;84.55;99728.90;681807;1265;139640;-81
2024/02/03 16:46:29;;;;;;;20.20;7.60;;;;;;;10.27;84.99;99731.52;681546;1265;139288;-81
2024/02/03 17:01:32;;;;;;;24.00;7.80;;;;;;;10.29;84.59;99742.10;681827;1265;139989;-81
2024/02/03 17:16:36;;;;;;;30.60;12.30;;;;;;;10.27;84.15;99719.39;681578;1261;140033;-82
2024/02/03 17:31:40;;;;;;;22.70;5.80;;;;;;;10.11;84.13;99724.81;681681;1266;141507;-81
2024/02/03 17:46:43;;;;;;;21.60;7.70;;;;;;;10.04;84.21;99730.34;681474;1265;139713;-81
2024/02/03 18:01:48;;;;;;;22.60;7.70;;;;;;;10.05;83.68;99730.55;681712;1265;139276;-80
2024/02/03 18:16:53;;;;;;;42.30;14.40;;;;;;;9.98;83.49;99743.44;681659;1261;139871;-80
2024/02/03 18:31:59;;;;;;;39.20;13.00;;;;;;;9.86;83.24;99747.08;681591;1266;139374;-81
2024/02/03 18:47:03;;;;;;;23.10;7.70;;;;;;;9.76;82.73;99759.13;681527;1266;139937;-80
2024/02/03 19:02:07;;;;;;;31.80;11.60;;;;;;;9.66;84.18;99759.90;681695;1266;139107;-82
2024/02/03 19:17:10;;;;;;;23.00;9.90;;;;;;;9.59;85.79;99750.60;681522;1266;139317;-80
2024/02/03 19:32:14;;;;;;;13.10;4.80;;;;;;;9.54;87.82;99737.76;681555;1265;138774;-81
2024/02/03 19:47:19;;;;;;;26.90;12.50;;;;;;;9.32;89.30;99737.73;681685;1265;139451;-80
2024/02/03 20:02:22;;;;;;;23.40;8.40;;;;;;;9.18;90.94;99745.07;681975;1261;139407;-81
2024/02/03 20:17:27;;;;;;;29.10;12.40;;;;;;;8.87;92.66;99755.16;682005;1264;138810;-81
2024/02/03 20:32:31;;;;;;;85.30;31.90;;;;;;;8.55;94.43;99743.52;682134;1261;141437;-80
2024/02/03 20:47:34;;;;;;;19.00;6.40;;;;;;;8.37;94.38;99732.13;681931;1266;140101;-80
2024/02/03 21:02:41;;;;;;;22.80;8.10;;;;;;;8.46;94.14;99720.54;681865;1264;183467;-81
2024/02/03 21:17:47;;;;;;;14.40;3.50;;;;;;;8.54;93.00;99715.80;681759;1266;138699;-79
2024/02/03 21:32:51;;;;;;;16.20;3.20;;;;;;;8.53;91.86;99714.91;682022;1263;139350;-81
2024/02/03 21:47:55;;;;;;;14.50;5.20;;;;;;;8.50;91.06;99708.00;681802;1267;139462;-79
2024/02/03 22:02:59;;;;;;;23.30;7.10;;;;;;;8.46;90.47;99701.89;681735;1264;139393;-81
2024/02/03 22:18:03;;;;;;;13.90;4.10;;;;;;;8.38;89.48;99698.39;681571;1264;138510;-81
2024/02/03 22:33:08;;;;;;;17.50;4.40;;;;;;;8.24;89.05;99696.69;681684;1265;141023;-80
2024/02/03 22:48:12;;;;;;;16.10;4.30;;;;;;;8.25;88.83;99692.39;681920;1264;138787;-81
2024/02/03 23:03:16;;;;;;;8.50;2.50;;;;;;;8.19;88.14;99688.41;681813;1262;139303;-80
2024/02/03 23:18:20;;;;;;;10.80;3.00;;;;;;;7.94;88.12;99688.30;682076;1262;139943;-81
2024/02/03 23:33:24;;;;;;;18.00;3.80;;;;;;;7.81;88.61;99677.90;681807;1262;140070;-80
2024/02/03 23:48:28;;;;;;;14.80;3.00;;;;;;;7.58;90.38;99666.79;681967;1264;138286;-80
